Time;durP1;ratioP1;P1;durP2;ratioP2;P2;SDS_P1;SDS_P2;PMS_P1;PMS_P2;Temp;Humidity;BMP_temperature;BMP_pressure;BME280_temperature;BME280_humidity;BME280_pressure;Samples;Min_cycle;Max_cycle;Signal;HPM_P1;HPM_P2
2022/01/23 00:02:05;;;;;;;59.10;33.83;;;;;;;2.92;60.32;102610.06;5053195;28;20045;-59
2022/01/23 00:04:32;;;;;;;54.97;33.47;;;;;;;2.94;59.90;102608.38;5054532;28;20045;-60
2022/01/23 00:07:04;;;;;;;54.47;32.75;;;;;;;2.91;60.25;102601.44;5054231;28;20848;-58
2022/01/23 00:09:31;;;;;;;65.65;37.33;;;;;;;2.81;60.63;102603.97;5054016;28;20060;-59
2022/01/23 00:12:02;;;;;;;71.07;38.90;;;;;;;2.84;60.34;102607.44;5053301;28;20398;-60
2022/01/23 00:19:46;;;;;;;63.75;36.67;;;;;;;2.90;60.37;102602.28;5026532;28;20045;-60
2022/01/23 00:22:13;;;;;;;68.50;36.67;;;;;;;2.87;60.45;102602.28;5054344;28;20049;-59
2022/01/23 00:30:19;;;;;;;62.13;33.63;;;;;;;2.86;60.49;102603.13;5028168;28;20091;-60
2022/01/23 00:32:46;;;;;;;63.50;35.20;;;;;;;2.85;60.46;102600.53;5049395;28;20044;-60
2022/01/23 00:35:12;;;;;;;56.38;33.58;;;;;;;2.81;60.58;102599.66;5053172;28;20094;-71
2022/01/23 00:37:39;;;;;;;57.25;33.35;;;;;;;2.74;60.75;102600.47;5053824;28;20051;-62
2022/01/23 00:40:07;;;;;;;67.15;35.30;;;;;;;2.75;60.83;102603.06;5053745;28;20049;-61
2022/01/23 00:42:34;;;;;;;60.22;33.50;;;;;;;2.72;60.51;102599.59;5053446;28;20049;-62
2022/01/23 00:47:50;;;;;;;59.80;32.63;;;;;;;2.75;60.42;102600.47;5047177;28;20045;-59
2022/01/23 00:50:16;;;;;;;59.40;33.28;;;;;;;2.70;60.62;102603.91;5053347;28;20045;-59
2022/01/23 00:52:43;;;;;;;56.65;32.03;;;;;;;2.73;60.62;102604.78;5053604;28;20052;-59
2022/01/23 00:55:10;;;;;;;57.05;32.45;;;;;;;2.72;60.57;102599.59;5053586;28;20056;-59
2022/01/23 00:57:37;;;;;;;55.80;31.67;;;;;;;2.66;60.75;102600.41;5053386;28;20095;-59
2022/01/23 01:00:05;;;;;;;58.70;32.85;;;;;;;2.60;60.93;102603.84;5053309;28;20063;-59
2022/01/23 01:02:32;;;;;;;59.92;32.70;;;;;;;2.63;60.81;102608.19;5050211;28;20041;-63
2022/01/23 01:04:59;;;;;;;57.70;33.20;;;;;;;2.65;60.88;102601.28;5047930;28;20052;-59
2022/01/23 01:07:26;;;;;;;60.83;31.67;;;;;;;2.64;60.81;102598.69;5053442;28;20102;-59
2022/01/23 01:09:54;;;;;;;60.65;32.60;;;;;;;2.60;61.03;102605.56;5053378;28;20041;-59
2022/01/23 01:12:34;;;;;;;58.17;32.85;;;;;;;2.61;61.13;102602.13;5052777;28;20146;-60
2022/01/23 01:15:25;;;;;;;55.03;32.80;;;;;;;2.63;60.90;102600.41;5053165;28;20045;-59
2022/01/23 01:36:33;;;;;;;51.85;31.45;;;;;;;2.48;60.88;102613.28;5031930;28;20099;-59
2022/01/23 01:38:59;;;;;;;54.75;32.20;;;;;;;2.47;61.06;102607.19;5032670;28;20080;-59
2022/01/23 01:41:26;;;;;;;60.58;32.65;;;;;;;2.49;61.03;102607.22;5031591;28;20072;-59
2022/01/23 01:43:54;;;;;;;54.70;32.92;;;;;;;2.47;61.01;102607.19;5032909;28;20046;-59
2022/01/23 01:46:21;;;;;;;61.10;33.17;;;;;;;2.47;61.03;102612.38;5032760;28;20477;-60
2022/01/23 01:48:48;;;;;;;57.92;31.23;;;;;;;2.47;61.14;102608.94;5032667;28;20060;-70
2022/01/23 01:51:17;;;;;;;62.35;32.92;;;;;;;2.51;60.96;102611.53;5032839;28;20390;-62
2022/01/23 01:53:50;;;;;;;58.80;33.25;;;;;;;2.51;61.26;102602.91;5031490;28;20053;-60
2022/01/23 01:56:17;;;;;;;55.58;32.75;;;;;;;2.51;61.30;102608.94;5032519;28;20045;-60
2022/01/23 02:09:18;;;;;;;56.23;29.97;;;;;;;2.48;61.69;102611.53;5031644;28;20076;-61
2022/01/23 02:14:28;;;;;;;54.83;32.28;;;;;;;2.39;61.71;102609.75;5032512;28;20041;-60
2022/01/23 02:55:23;;;;;;;58.45;31.70;;;;;;;2.54;61.89;102611.59;5031847;28;20087;-60
2022/01/23 02:58:01;;;;;;;57.92;32.55;;;;;;;2.53;61.84;102604.66;5031493;28;20053;-60
2022/01/23 03:00:35;;;;;;;56.35;31.98;;;;;;;2.52;62.24;102602.91;5036264;28;20049;-61
2022/01/23 03:03:11;;;;;;;61.47;30.70;;;;;;;2.51;62.17;102600.31;5035889;28;20045;-60
2022/01/23 03:05:40;;;;;;;54.22;30.25;;;;;;;2.53;62.05;102606.41;5035886;28;20180;-65
2022/01/23 03:10:43;;;;;;;57.90;31.55;;;;;;;2.47;62.33;102603.75;5035715;28;20107;-60
2022/01/23 03:13:45;;;;;;;56.72;31.42;;;;;;;2.42;62.54;102604.56;5034921;28;20045;-59
2022/01/23 03:24:27;;;;;;;53.88;30.05;;;;;;;2.31;62.30;102595.88;5035555;28;20540;-60
2022/01/23 03:27:02;;;;;;;56.30;31.90;;;;;;;2.28;62.15;102588.91;5035431;28;20041;-60
2022/01/23 03:29:50;;;;;;;55.67;31.58;;;;;;;2.27;62.24;102591.50;5034478;28;20498;-59
2022/01/23 03:32:34;;;;;;;60.80;32.08;;;;;;;2.25;62.19;102604.44;5035363;28;20049;-61
2022/01/23 03:35:02;;;;;;;55.20;31.45;;;;;;;2.19;62.27;102600.94;5035370;28;20061;-64
2022/01/23 03:37:28;;;;;;;54.65;29.67;;;;;;;2.10;62.34;102602.59;5035411;28;20046;-64
2022/01/23 03:39:55;;;;;;;48.40;29.33;;;;;;;2.09;62.25;102605.16;5034980;28;20089;-60
2022/01/23 03:42:23;;;;;;;61.63;31.98;;;;;;;2.08;61.97;102609.50;5034948;28;20448;-60
2022/01/23 03:45:07;;;;;;;63.28;32.30;;;;;;;2.08;61.75;102606.91;5035175;28;20050;-60
2022/01/23 03:50:00;;;;;;;59.42;32.00;;;;;;;2.08;61.61;102599.13;5034977;28;20520;-62
2022/01/23 03:52:27;;;;;;;59.55;31.48;;;;;;;2.08;61.72;102603.44;5034964;28;20050;-62
2022/01/23 03:54:54;;;;;;;57.55;30.85;;;;;;;2.09;61.61;102611.19;5035023;28;20042;-59
2022/01/23 03:57:21;;;;;;;56.25;30.33;;;;;;;2.09;61.64;102607.75;5034777;28;20050;-64
2022/01/23 03:59:47;;;;;;;50.67;29.02;;;;;;;2.06;61.50;102605.16;5034913;28;20107;-65
2022/01/23 04:02:14;;;;;;;54.92;30.05;;;;;;;2.03;61.63;102608.59;5032295;28;20050;-61
2022/01/23 04:04:42;;;;;;;53.83;29.27;;;;;;;1.96;61.65;102606.78;5030296;28;20052;-59
2022/01/23 04:07:15;;;;;;;51.28;29.33;;;;;;;1.99;61.62;102609.38;5031547;28;20077;-59
2022/01/23 04:09:43;;;;;;;56.95;30.35;;;;;;;2.06;61.58;102599.97;5030100;28;20046;-67
2022/01/23 04:12:21;;;;;;;54.25;29.83;;;;;;;2.03;61.45;102605.09;5031241;28;20049;-60
2022/01/23 04:14:54;;;;;;;56.28;30.23;;;;;;;2.03;61.68;102595.63;5031321;28;20405;-63
2022/01/23 04:33:43;;;;;;;49.20;28.85;;;;;;;2.02;61.63;102601.66;5030994;28;20045;-62
2022/01/23 05:01:01;;;;;;;49.85;27.38;;;;;;;2.10;62.46;102617.28;5030368;28;20057;-61
2022/01/23 05:06:08;;;;;;;49.17;27.05;;;;;;;2.10;62.30;102625.03;5030599;28;20054;-60
2022/01/23 05:08:37;;;;;;;49.00;27.42;;;;;;;2.09;62.52;102626.75;5029538;28;20071;-67
2022/01/23 05:11:08;;;;;;;50.60;27.13;;;;;;;2.09;62.48;102618.13;5029916;28;20115;-67
2022/01/23 05:13:35;;;;;;;47.88;27.48;;;;;;;2.12;62.46;102620.72;5030308;28;20046;-63
2022/01/23 05:16:02;;;;;;;52.80;28.05;;;;;;;2.12;62.84;102618.13;5030090;28;20100;-60
2022/01/23 05:18:32;;;;;;;45.22;27.15;;;;;;;2.08;62.69;102617.25;5030068;28;20128;-60
2022/01/23 05:21:11;;;;;;;51.88;26.85;;;;;;;2.04;62.87;102619.78;5029589;28;20509;-60
2022/01/23 05:23:38;;;;;;;48.83;27.92;;;;;;;2.04;62.91;102628.41;5030203;28;20076;-59
2022/01/23 05:26:05;;;;;;;47.53;27.02;;;;;;;2.04;62.86;102631.00;5029289;28;20057;-59
2022/01/23 05:28:31;;;;;;;50.38;27.67;;;;;;;2.06;62.91;102631.91;5029958;28;20046;-59
2022/01/23 05:30:58;;;;;;;51.17;27.98;;;;;;;2.10;62.83;102638.84;5029684;28;20437;-62
2022/01/23 05:33:25;;;;;;;55.85;27.40;;;;;;;2.10;62.95;102648.34;5029856;28;20045;-60
2022/01/23 05:35:51;;;;;;;47.50;26.98;;;;;;;2.14;62.89;102651.84;5029884;28;20056;-59
2022/01/23 05:38:18;;;;;;;49.92;27.60;;;;;;;2.17;62.90;102649.25;5029822;28;20049;-60
2022/01/23 05:40:45;;;;;;;51.22;27.75;;;;;;;2.16;62.97;102655.28;5029611;28;20104;-60
2022/01/23 05:43:11;;;;;;;54.90;28.00;;;;;;;2.15;63.09;102659.63;5028349;28;20052;-66
2022/01/23 05:45:41;;;;;;;52.00;26.85;;;;;;;2.15;63.14;102658.75;5029422;28;20049;-60
2022/01/23 05:48:10;;;;;;;49.15;27.45;;;;;;;2.10;63.30;102656.13;5029604;28;20052;-59
2022/01/23 05:50:36;;;;;;;46.22;25.98;;;;;;;2.09;63.39;102667.31;5029652;28;20049;-59
2022/01/23 05:53:03;;;;;;;48.08;27.30;;;;;;;2.14;63.13;102662.19;5029822;28;20497;-61
2022/01/23 05:55:30;;;;;;;51.10;26.58;;;;;;;2.15;63.12;102676.88;5029548;28;20498;-61
2022/01/23 05:57:56;;;;;;;51.20;27.50;;;;;;;2.19;63.30;102678.66;5028172;28;20571;-60
2022/01/23 06:00:23;;;;;;;51.65;27.20;;;;;;;2.22;63.35;102682.13;5029599;28;20061;-60
2022/01/23 06:02:50;;;;;;;44.67;26.48;;;;;;;2.23;63.45;102668.31;5029417;28;20510;-60
2022/01/23 06:05:16;;;;;;;53.13;27.38;;;;;;;2.27;63.39;102671.81;5029679;28;20056;-60
2022/01/23 06:07:43;;;;;;;59.88;28.67;;;;;;;2.29;63.32;102670.97;5029155;28;20041;-59
2022/01/23 06:10:19;;;;;;;49.40;26.50;;;;;;;2.30;63.51;102674.44;5029212;28;20049;-64
2022/01/23 06:12:46;;;;;;;52.53;29.10;;;;;;;2.30;63.51;102682.22;5029268;28;20053;-59
2022/01/23 06:15:13;;;;;;;49.63;28.90;;;;;;;2.28;63.61;102689.94;5029299;28;20413;-59
2022/01/23 06:17:40;;;;;;;49.03;28.55;;;;;;;2.32;63.72;102690.84;5028423;28;20095;-59
2022/01/23 06:20:09;;;;;;;51.25;28.50;;;;;;;2.34;63.65;102691.75;5028965;28;20042;-60
2022/01/23 06:22:35;;;;;;;55.40;29.20;;;;;;;2.37;63.77;102693.50;5029109;28;20452;-59
2022/01/23 06:25:05;;;;;;;51.45;28.48;;;;;;;2.41;63.69;102690.06;5029103;28;20041;-59
2022/01/23 06:27:32;;;;;;;47.33;26.55;;;;;;;2.45;63.81;102692.72;5029049;28;20490;-59
2022/01/23 06:29:59;;;;;;;46.50;26.63;;;;;;;2.47;63.62;102689.25;5029131;28;20061;-65
2022/01/23 06:32:26;;;;;;;48.65;27.95;;;;;;;2.45;63.82;102691.81;5028164;28;20482;-60
2022/01/23 06:34:59;;;;;;;49.75;27.33;;;;;;;2.40;64.18;102691.78;5027936;28;20041;-59
2022/01/23 06:37:36;;;;;;;48.05;26.13;;;;;;;2.43;63.88;102693.53;5028816;28;20046;-67
2022/01/23 06:40:09;;;;;;;49.00;28.20;;;;;;;2.33;63.97;102700.34;5028647;28;20052;-59
2022/01/23 06:42:36;;;;;;;47.78;27.13;;;;;;;2.30;63.84;102715.88;5028570;28;20061;-61
2022/01/23 06:45:03;;;;;;;49.22;27.85;;;;;;;2.38;63.83;102708.19;5028784;28;20076;-61
2022/01/23 06:47:29;;;;;;;48.92;27.75;;;;;;;2.39;63.76;102705.59;5028895;28;20103;-60
2022/01/23 06:49:56;;;;;;;48.67;26.90;;;;;;;2.41;63.77;102706.50;5027229;28;20045;-62
2022/01/23 06:52:23;;;;;;;47.38;28.00;;;;;;;2.42;63.90;102717.72;5028729;28;20116;-60
2022/01/23 06:54:50;;;;;;;52.25;27.38;;;;;;;2.42;63.64;102723.75;5028787;28;20045;-65
2022/01/23 06:57:17;;;;;;;47.45;26.85;;;;;;;2.42;63.84;102728.06;5028606;28;20052;-66
2022/01/23 06:59:44;;;;;;;50.80;26.75;;;;;;;2.41;63.77;102735.00;5028423;28;20041;-59
2022/01/23 07:02:10;;;;;;;46.83;26.02;;;;;;;2.43;63.84;102745.38;5028753;28;20049;-59
2022/01/23 07:04:37;;;;;;;45.28;26.30;;;;;;;2.44;63.68;102742.78;5028726;28;20049;-60
2022/01/23 07:07:04;;;;;;;47.15;27.17;;;;;;;2.44;63.92;102747.97;5027962;28;20195;-72
2022/01/23 07:09:30;;;;;;;50.42;27.38;;;;;;;2.45;63.81;102754.00;5028305;28;20050;-60
2022/01/23 07:11:57;;;;;;;47.97;27.05;;;;;;;2.47;63.98;102741.09;5028109;28;20056;-62
2022/01/23 07:14:24;;;;;;;49.47;28.00;;;;;;;2.47;63.74;102752.31;5028640;28;20046;-63
2022/01/23 07:16:51;;;;;;;47.90;27.92;;;;;;;2.49;63.79;102754.91;5028820;28;20053;-59
2022/01/23 07:19:17;;;;;;;51.40;27.23;;;;;;;2.49;63.75;102750.63;5028629;28;20452;-60
2022/01/23 07:21:45;;;;;;;48.58;26.95;;;;;;;2.49;64.08;102755.78;5028026;28;20097;-59
2022/01/23 07:24:12;;;;;;;50.25;28.17;;;;;;;2.51;63.99;102764.44;5027448;28;20052;-60
2022/01/23 07:26:39;;;;;;;48.65;27.95;;;;;;;2.56;64.03;102761.91;5028106;28;20042;-60
2022/01/23 07:29:07;;;;;;;49.63;27.25;;;;;;;2.54;64.13;102767.06;5028712;28;20110;-59
2022/01/23 07:34:05;;;;;;;69.93;38.20;;;;;;;2.57;63.97;102763.66;5028575;28;20124;-59
2022/01/23 07:36:33;;;;;;;55.13;31.08;;;;;;;2.60;63.89;102756.78;5028351;28;20049;-59
2022/01/23 07:39:01;;;;;;;52.05;29.73;;;;;;;2.62;63.87;102761.97;5028519;28;20080;-58
2022/01/23 07:41:28;;;;;;;46.97;26.17;;;;;;;2.67;63.76;102765.47;5027084;28;20049;-57
2022/01/23 07:43:58;;;;;;;47.50;26.85;;;;;;;2.69;63.75;102762.88;5029565;28;20111;-58
2022/01/23 07:46:25;;;;;;;47.17;28.52;;;;;;;2.70;63.80;102752.50;5031757;28;20052;-58
2022/01/23 07:48:52;;;;;;;46.90;26.83;;;;;;;2.69;63.84;102758.56;5031534;28;20049;-57
2022/01/23 07:51:18;;;;;;;47.22;27.17;;;;;;;2.73;63.80;102756.84;5032147;28;20111;-60
2022/01/23 07:53:45;;;;;;;43.15;26.73;;;;;;;2.73;63.69;102752.56;5031749;28;20045;-60
2022/01/23 07:56:12;;;;;;;52.25;27.30;;;;;;;2.77;63.96;102746.53;5030495;28;20041;-59
2022/01/23 07:58:39;;;;;;;54.53;29.20;;;;;;;2.80;63.81;102755.22;5031758;28;20050;-59
2022/01/23 08:01:06;;;;;;;49.35;27.08;;;;;;;2.81;64.03;102752.63;5031732;28;20077;-60
2022/01/23 08:03:33;;;;;;;51.63;29.52;;;;;;;2.84;63.84;102750.03;5031826;28;20050;-70
2022/01/23 08:06:00;;;;;;;51.80;31.38;;;;;;;2.87;63.87;102747.50;5031425;28;20049;-59
2022/01/23 08:08:26;;;;;;;47.95;26.83;;;;;;;2.91;63.97;102750.97;5031361;28;20045;-62
2022/01/23 08:10:53;;;;;;;47.70;27.05;;;;;;;2.98;63.76;102749.28;5030018;28;20060;-63
2022/01/23 08:13:20;;;;;;;46.42;26.60;;;;;;;2.98;63.81;102750.16;5031402;28;20045;-62
2022/01/23 08:15:46;;;;;;;44.85;26.67;;;;;;;3.00;63.90;102748.44;5031209;28;20079;-61
2022/01/23 08:18:15;;;;;;;47.28;26.75;;;;;;;3.04;63.76;102749.34;5031154;28;20050;-69
2022/01/23 08:20:42;;;;;;;48.78;26.60;;;;;;;3.08;63.80;102745.91;5031458;28;20072;-64
2022/01/23 08:23:09;;;;;;;48.20;27.33;;;;;;;3.08;63.98;102749.34;5031300;28;20104;-66
2022/01/23 08:25:36;;;;;;;47.05;26.20;;;;;;;3.14;64.12;102752.88;5031106;28;20199;-61
2022/01/23 08:28:03;;;;;;;51.83;27.35;;;;;;;3.15;64.05;102755.47;5030180;28;20045;-63
2022/01/23 08:30:30;;;;;;;49.13;27.05;;;;;;;3.16;64.23;102757.22;5030974;28;20049;-65
2022/01/23 08:32:57;;;;;;;47.90;27.27;;;;;;;3.18;64.32;102768.47;5030965;28;20115;-61
2022/01/23 08:35:32;;;;;;;45.75;27.05;;;;;;;3.23;64.13;102771.94;5031264;28;20099;-62
2022/01/23 08:37:59;;;;;;;50.80;28.90;;;;;;;3.27;64.28;102757.28;5031015;28;20041;-63
2022/01/23 08:40:58;;;;;;;49.70;30.40;;;;;;;3.32;64.19;102767.69;5030945;28;20060;-64
2022/01/23 08:43:26;;;;;;;55.70;30.08;;;;;;;3.38;64.12;102767.75;5030686;28;20065;-63
2022/01/23 08:45:53;;;;;;;45.72;27.92;;;;;;;3.42;64.09;102767.75;5029954;28;20046;-66
2022/01/23 08:48:20;;;;;;;56.05;31.00;;;;;;;3.47;64.17;102770.38;5031137;28;20124;-62
2022/01/23 08:50:46;;;;;;;53.22;29.67;;;;;;;3.54;64.22;102776.47;5030648;28;20041;-63
2022/01/23 08:53:13;;;;;;;51.22;27.50;;;;;;;3.59;64.06;102782.53;5042009;28;20095;-62
2022/01/23 08:55:40;;;;;;;48.13;27.23;;;;;;;3.68;64.08;102792.13;5029760;28;20426;-62
2022/01/23 08:58:06;;;;;;;48.05;27.20;;;;;;;3.71;64.06;102797.34;5030089;28;20050;-62
2022/01/23 09:00:33;;;;;;;50.25;27.33;;;;;;;3.78;63.98;102793.91;5039687;28;20044;-65
2022/01/23 09:03:00;;;;;;;44.80;26.73;;;;;;;3.84;63.98;102791.34;5041189;28;20049;-62
2022/01/23 09:05:27;;;;;;;45.10;25.73;;;;;;;3.90;63.93;102786.16;5046348;28;20132;-61
2022/01/23 09:07:54;;;;;;;47.00;26.50;;;;;;;4.00;63.76;102794.00;5043684;28;20099;-68
2022/01/23 09:10:29;;;;;;;50.20;27.70;;;;;;;4.07;63.57;102799.22;5040580;28;20049;-64
2022/01/23 09:15:24;;;;;;;46.92;26.80;;;;;;;4.20;63.47;102807.94;5019149;28;20049;-61
2022/01/23 09:17:50;;;;;;;52.55;29.95;;;;;;;4.28;63.48;102807.97;5029377;28;20045;-61
2022/01/23 09:20:17;;;;;;;55.70;31.50;;;;;;;4.34;63.35;102812.31;5039188;28;20048;-62
2022/01/23 09:22:44;;;;;;;49.28;28.85;;;;;;;4.35;63.52;102814.91;5044972;28;20052;-60
2022/01/23 09:25:15;;;;;;;53.70;30.13;;;;;;;4.33;63.44;102826.16;5041779;28;20053;-60
2022/01/23 09:27:42;;;;;;;59.17;32.13;;;;;;;4.39;63.70;102826.19;5045729;28;20052;-60
2022/01/23 09:30:17;;;;;;;69.32;34.47;;;;;;;4.46;63.57;102825.34;5041349;28;20041;-61
2022/01/23 09:32:44;;;;;;;59.80;32.43;;;;;;;4.53;63.43;102832.31;5038283;28;20053;-62
2022/01/23 09:35:11;;;;;;;54.08;31.33;;;;;;;4.51;63.77;102831.44;5039228;28;20280;-61
2022/01/23 09:37:38;;;;;;;55.13;30.48;;;;;;;4.62;63.68;102838.38;5043857;28;20047;-61
2022/01/23 09:40:05;;;;;;;53.47;29.92;;;;;;;4.66;63.62;102841.00;5043089;28;20045;-61
2022/01/23 09:42:49;;;;;;;50.13;29.42;;;;;;;4.76;63.56;102846.22;5044129;28;20049;-62
2022/01/23 09:45:15;;;;;;;53.10;30.88;;;;;;;4.89;63.05;102843.63;5042799;28;20091;-63
2022/01/23 09:47:42;;;;;;;51.40;28.98;;;;;;;5.06;62.79;102840.16;5043609;28;20079;-63
2022/01/23 09:50:12;;;;;;;56.38;29.27;;;;;;;5.32;62.43;102841.91;5038465;28;20508;-64
2022/01/23 09:52:40;;;;;;;51.75;29.65;;;;;;;5.46;62.07;102841.88;5041514;28;20405;-63
2022/01/23 09:55:12;;;;;;;50.42;29.65;;;;;;;5.73;61.76;102838.38;5039631;28;20065;-62
2022/01/23 09:57:49;;;;;;;54.20;30.23;;;;;;;5.91;61.35;102842.66;5028896;28;20057;-62
2022/01/23 10:00:24;;;;;;;66.32;30.30;;;;;;;5.88;61.65;102845.28;5019779;28;20237;-62
2022/01/23 10:02:51;;;;;;;49.47;29.02;;;;;;;5.95;61.49;102833.94;5029073;28;20401;-62
2022/01/23 10:05:19;;;;;;;47.65;28.83;;;;;;;5.92;61.68;102833.97;5028728;28;20088;-61
2022/01/23 10:07:46;;;;;;;51.85;30.05;;;;;;;6.06;61.44;102833.97;5028171;28;20053;-63
2022/01/23 10:10:20;;;;;;;55.42;29.92;;;;;;;6.23;61.16;102839.09;5029024;28;20091;-62
2022/01/23 10:12:55;;;;;;;44.85;28.02;;;;;;;6.21;61.33;102841.72;5028703;28;20050;-64
2022/01/23 10:15:27;;;;;;;43.95;27.58;;;;;;;6.25;61.29;102845.19;5029212;28;20047;-61
2022/01/23 10:17:55;;;;;;;41.72;25.92;;;;;;;6.37;61.18;102842.53;5028991;28;20045;-60
2022/01/23 10:20:22;;;;;;;44.58;26.45;;;;;;;6.70;60.20;102837.97;5028964;28;20100;-60
2022/01/23 10:22:51;;;;;;;46.83;27.30;;;;;;;7.14;59.06;102822.00;5028216;28;20490;-60
2022/01/23 10:25:20;;;;;;;47.10;26.92;;;;;;;7.46;58.22;102820.81;5034227;28;20041;-59
2022/01/23 10:28:02;;;;;;;46.90;27.10;;;;;;;7.63;57.97;102813.69;5033361;28;20049;-59
2022/01/23 10:30:38;;;;;;;48.38;27.85;;;;;;;8.08;56.72;102809.69;5016371;28;20049;-59
2022/01/23 10:33:15;;;;;;;46.28;26.27;;;;;;;8.36;56.07;102804.94;5029004;28;20053;-59
2022/01/23 10:35:54;;;;;;;43.13;26.58;;;;;;;8.68;55.10;102806.25;5017024;28;20052;-59
2022/01/23 10:38:23;;;;;;;51.83;29.33;;;;;;;8.89;54.73;102802.44;5027771;28;20053;-59
2022/01/23 10:41:03;;;;;;;44.35;26.10;;;;;;;9.13;54.01;102797.69;5029140;28;20037;-59
2022/01/23 10:46:52;;;;;;;46.58;28.20;;;;;;;9.52;53.17;102779.47;5036898;28;20382;-60
2022/01/23 10:49:19;;;;;;;46.15;27.77;;;;;;;9.71;52.69;102787.84;5038689;28;20120;-60
2022/01/23 10:51:49;;;;;;;43.92;27.13;;;;;;;9.85;52.19;102781.47;5045162;28;20041;-60
2022/01/23 10:54:24;;;;;;;79.72;42.20;;;;;;;9.99;51.78;102779.41;5038177;28;20203;-60
2022/01/23 10:56:55;;;;;;;50.20;28.70;;;;;;;10.09;51.41;102785.31;5042110;28;20049;-61
2022/01/23 10:59:22;;;;;;;50.40;33.70;;;;;;;10.17;51.18;102783.41;5040242;28;20735;-62
2022/01/23 11:02:07;;;;;;;74.43;45.42;;;;;;;10.26;50.85;102777.09;5028656;28;20380;-62
2022/01/23 11:04:50;;;;;;;61.42;39.78;;;;;;;10.31;50.63;102783.09;5028303;28;20387;-59
2022/01/23 11:07:17;;;;;;;59.22;40.45;;;;;;;10.37;50.34;102779.50;5033593;28;20049;-59
2022/01/23 11:09:44;;;;;;;51.20;34.33;;;;;;;10.42;50.36;102770.63;5036733;28;20065;-58
2022/01/23 11:12:45;;;;;;;47.78;31.00;;;;;;;10.50;50.48;102772.19;5027801;28;20068;-60
2022/01/23 11:17:58;;;;;;;49.35;29.88;;;;;;;10.47;49.76;102777.53;5041923;28;20044;-58
2022/01/23 11:20:34;;;;;;;51.70;29.90;;;;;;;10.51;49.71;102763.41;5047821;28;20091;-58
2022/01/23 11:23:22;;;;;;;68.15;42.22;;;;;;;10.54;49.53;102777.34;5044808;28;20060;-59
2022/01/23 11:25:52;;;;;;;49.67;27.50;;;;;;;10.56;49.44;102775.56;5041284;28;20111;-57
2022/01/23 11:28:28;;;;;;;52.30;30.98;;;;;;;10.57;49.50;102771.16;5032532;28;20045;-58
2022/01/23 11:30:55;;;;;;;97.25;56.90;;;;;;;10.56;49.41;102779.91;5022607;28;20045;-58
2022/01/23 11:33:21;;;;;;;250.10;151.48;;;;;;;10.52;49.54;102780.91;5038729;28;20045;-58
2022/01/23 11:35:49;;;;;;;115.35;68.07;;;;;;;10.52;49.42;102768.63;5031926;28;20077;-58
2022/01/23 11:38:19;;;;;;;56.08;33.50;;;;;;;10.54;49.54;102772.09;5042832;28;20076;-60
2022/01/23 11:54:43;;;;;;;53.38;30.75;;;;;;;10.78;48.99;102747.00;5039256;28;20046;-57
2022/01/23 11:57:38;;;;;;;136.13;63.90;;;;;;;10.80;49.11;102741.69;5030175;28;20044;-58
2022/01/23 12:00:20;;;;;;;53.90;32.08;;;;;;;10.84;49.25;102737.22;5036401;28;20045;-57
2022/01/23 12:03:08;;;;;;;51.85;29.95;;;;;;;10.85;49.21;102744.22;5041958;28;20049;-57
2022/01/23 12:05:37;;;;;;;48.92;29.33;;;;;;;10.89;49.24;102741.47;5031227;28;20052;-59
2022/01/23 12:08:28;;;;;;;51.78;30.35;;;;;;;10.94;49.09;102731.72;5031161;28;20045;-58
2022/01/23 12:17:38;;;;;;;57.15;31.35;;;;;;;11.17;48.81;102714.44;5030278;28;20045;-57
2022/01/23 12:20:05;;;;;;;46.10;26.90;;;;;;;11.11;48.95;102717.28;5031259;28;20041;-58
2022/01/23 12:22:40;;;;;;;47.20;26.88;;;;;;;10.93;49.10;102714.22;5030968;28;20111;-57
2022/01/23 12:25:11;;;;;;;47.17;26.98;;;;;;;10.99;49.30;102712.34;5031102;28;20053;-62
2022/01/23 12:27:38;;;;;;;48.45;26.55;;;;;;;11.18;48.75;102705.66;5030944;28;20053;-59
2022/01/23 12:30:23;;;;;;;50.40;27.50;;;;;;;11.31;48.49;102714.06;5030002;28;20621;-58
2022/01/23 12:33:09;;;;;;;78.55;46.08;;;;;;;11.38;48.44;102710.38;5030493;28;20561;-57
2022/01/23 12:35:41;;;;;;;53.47;30.35;;;;;;;11.49;48.37;102707.44;5030579;28;20052;-57
2022/01/23 12:38:10;;;;;;;57.30;30.25;;;;;;;11.52;48.33;102707.34;5030665;28;20560;-59
2022/01/23 12:40:43;;;;;;;49.58;28.40;;;;;;;11.59;48.38;102708.91;5027280;28;20041;-58
2022/01/23 12:43:24;;;;;;;46.75;27.27;;;;;;;11.61;48.20;102700.97;5045683;28;20139;-61
2022/01/23 12:45:53;;;;;;;50.78;28.27;;;;;;;11.69;48.24;102698.09;5038449;28;20045;-58
2022/01/23 12:48:25;;;;;;;50.63;27.38;;;;;;;11.71;48.27;102696.28;5045675;28;20466;-58
2022/01/23 12:51:04;;;;;;;55.75;29.27;;;;;;;11.67;48.43;102698.16;5040222;28;20053;-58
2022/01/23 12:53:47;;;;;;;48.45;26.80;;;;;;;11.72;48.33;102690.13;5030623;28;20053;-58
2022/01/23 12:56:18;;;;;;;51.28;27.27;;;;;;;11.72;48.41;102684.88;5032491;28;20409;-60
2022/01/23 12:59:06;;;;;;;50.00;27.98;;;;;;;11.81;48.40;102684.59;5029760;28;20050;-60
2022/01/23 13:01:33;;;;;;;46.05;27.15;;;;;;;11.87;48.24;102673.88;5030929;28;20634;-60
2022/01/23 13:04:03;;;;;;;50.35;28.02;;;;;;;11.88;48.32;102678.25;5032514;28;20080;-58
2022/01/23 13:06:32;;;;;;;54.92;29.77;;;;;;;11.94;48.42;102679.81;5035243;28;20037;-58
2022/01/23 13:09:36;;;;;;;61.60;31.50;;;;;;;12.03;48.62;102665.53;5029015;28;20508;-59
2022/01/23 13:12:11;;;;;;;61.45;33.55;;;;;;;12.08;48.86;102653.09;5026891;28;20057;-61
2022/01/23 13:14:52;;;;;;;47.58;27.00;;;;;;;12.09;48.95;102658.28;5029904;28;20041;-58
2022/01/23 13:32:08;;;;;;;56.65;30.50;;;;;;;12.05;48.94;102625.09;5038844;28;20049;-57
2022/01/23 13:34:39;;;;;;;57.13;30.95;;;;;;;12.13;48.83;102627.47;5022503;28;20041;-60
2022/01/23 13:37:15;;;;;;;53.05;30.55;;;;;;;12.13;48.82;102622.22;5029694;28;20045;-60
2022/01/23 13:39:57;;;;;;;61.15;33.40;;;;;;;12.02;49.22;102632.22;5022746;28;20068;-58
2022/01/23 13:53:51;;;;;;;56.00;31.42;;;;;;;11.98;49.55;102634.09;5029574;28;20390;-57
2022/01/23 14:02:25;;;;;;;56.90;32.42;;;;;;;11.68;50.30;102630.63;5021703;28;20049;-58
2022/01/23 14:05:03;;;;;;;67.70;37.60;;;;;;;11.63;50.37;102630.78;5025644;28;20041;-57
2022/01/23 14:07:30;;;;;;;72.03;38.67;;;;;;;11.63;50.51;102627.28;5029222;28;20052;-58
2022/01/23 14:10:08;;;;;;;87.07;50.35;;;;;;;11.62;50.73;102622.91;5028503;28;20041;-62
2022/01/23 14:12:35;;;;;;;99.28;53.15;;;;;;;11.59;50.91;102614.25;5028901;28;20111;-60
2022/01/23 14:15:22;;;;;;;114.38;63.85;;;;;;;11.56;50.88;102619.56;5029093;28;20096;-58
2022/01/23 14:18:05;;;;;;;119.65;68.82;;;;;;;11.60;50.99;102612.47;5027966;28;20382;-59
2022/01/23 14:20:39;;;;;;;91.30;50.83;;;;;;;11.58;50.93;102612.50;5028729;28;20049;-58
2022/01/23 14:23:20;;;;;;;78.80;49.38;;;;;;;11.67;50.96;102605.22;5028770;28;20080;-60
2022/01/23 14:25:57;;;;;;;55.10;33.85;;;;;;;11.73;50.77;102597.16;5019279;28;20049;-58
2022/01/23 14:28:28;;;;;;;61.15;34.15;;;;;;;11.69;50.83;102600.78;5028875;28;20415;-60
2022/01/23 14:30:59;;;;;;;58.92;35.67;;;;;;;11.88;50.19;102599.31;5028818;28;20045;-61
2022/01/23 14:33:35;;;;;;;94.80;50.47;;;;;;;12.04;50.03;102601.47;5027977;28;20041;-60
2022/01/23 14:36:25;;;;;;;90.75;48.85;;;;;;;12.19;49.52;102600.06;5022559;28;20092;-60
2022/01/23 14:38:57;;;;;;;62.80;34.78;;;;;;;12.24;49.54;102588.50;5028441;28;20068;-60
2022/01/23 14:41:26;;;;;;;58.90;33.38;;;;;;;12.18;49.72;102595.75;5028707;28;20053;-57
2022/01/23 14:43:53;;;;;;;60.40;34.60;;;;;;;12.25;49.46;102590.22;5028669;28;20072;-61
2022/01/23 14:46:20;;;;;;;63.60;39.33;;;;;;;12.19;49.78;102595.69;5028661;28;20454;-61
2022/01/23 14:48:49;;;;;;;65.78;40.08;;;;;;;12.12;50.05;102596.81;5028493;28;20049;-57
2022/01/23 14:51:22;;;;;;;65.28;36.15;;;;;;;12.14;49.83;102595.00;5014125;28;20049;-63
2022/01/23 14:53:51;;;;;;;66.93;37.40;;;;;;;12.10;50.10;102590.75;5030551;28;20382;-60
2022/01/23 14:56:20;;;;;;;105.47;58.50;;;;;;;11.95;50.52;102586.81;5032581;28;20080;-60